Fisher Island, Florida
Current Conditions -  °F | °C
As of 5:53 PM on Wednesday 26 Nov 2014 (Local Time) from KMIA Reporting Station
Broken Clouds Broken Clouds  
Wind Chill: 64°   Ceiling: 9000
Heat Index: 64°   Visibility: 10mi
Dew Point: 49°   Wind: 12mph
Humidity: 58%   Direction: 340°NNW
Pressure: 30.13"   Gusts: 23mph
Location:  25.784°N, 80.1359°W
Report Text: KMIA 262253Z 34010G20KT 10SM FEW035 BKN090 BKN120 BKN250 18/09 A3013 RMK AO2 SLP203 T01780094
Loading
Personal Weather Stations






























Interactive Weather Map New forecast layout! Learn more

10-Day Weather Forecast

Advertisements
Track Severe Weather on mobile